sensor_id;sensor_type;location;lat;lon;timestamp;pressure;altitude;pressure_sealevel;temperature
34023;BMP280;20673;48.980;8.138;2023-02-15T00:01:11;101645.65;;;2.20
34023;BMP280;20673;48.980;8.138;2023-02-15T00:03:37;101645.33;;;2.19
34023;BMP280;20673;48.980;8.138;2023-02-15T00:06:04;101645.73;;;2.19
34023;BMP280;20673;48.980;8.138;2023-02-15T00:08:31;101643.11;;;2.18
34023;BMP280;20673;48.980;8.138;2023-02-15T00:11:09;101637.53;;;2.19
34023;BMP280;20673;48.980;8.138;2023-02-15T00:13:32;101639.43;;;2.15
34023;BMP280;20673;48.980;8.138;2023-02-15T00:16:06;101641.11;;;2.16
34023;BMP280;20673;48.980;8.138;2023-02-15T00:18:33;101639.61;;;2.18
34023;BMP280;20673;48.980;8.138;2023-02-15T00:21:05;101640.62;;;2.12
34023;BMP280;20673;48.980;8.138;2023-02-15T00:23:31;101641.74;;;2.15
34023;BMP280;20673;48.980;8.138;2023-02-15T00:26:10;101641.90;;;2.15
34023;BMP280;20673;48.980;8.138;2023-02-15T00:28:33;101636.68;;;2.12
34023;BMP280;20673;48.980;8.138;2023-02-15T00:33:32;101636.94;;;2.12
34023;BMP280;20673;48.980;8.138;2023-02-15T00:35:59;101639.64;;;2.12
34023;BMP280;20673;48.980;8.138;2023-02-15T00:38:29;101632.62;;;2.05
34023;BMP280;20673;48.980;8.138;2023-02-15T00:40:57;101636.08;;;2.07
34023;BMP280;20673;48.980;8.138;2023-02-15T00:43:24;101637.98;;;2.04
34023;BMP280;20673;48.980;8.138;2023-02-15T00:45:50;101639.19;;;2.08
34023;BMP280;20673;48.980;8.138;2023-02-15T00:48:17;101639.83;;;2.10
34023;BMP280;20673;48.980;8.138;2023-02-15T00:50:48;101636.54;;;2.11
34023;BMP280;20673;48.980;8.138;2023-02-15T00:53:14;101639.97;;;2.11
34023;BMP280;20673;48.980;8.138;2023-02-15T00:55:40;101633.49;;;2.10
34023;BMP280;20673;48.980;8.138;2023-02-15T00:58:07;101630.07;;;2.08
34023;BMP280;20673;48.980;8.138;2023-02-15T01:00:33;101633.46;;;2.04
34023;BMP280;20673;48.980;8.138;2023-02-15T01:02:59;101635.59;;;2.07
34023;BMP280;20673;48.980;8.138;2023-02-15T01:05:26;101632.25;;;2.04
34023;BMP280;20673;48.980;8.138;2023-02-15T01:07:52;101628.40;;;2.02
34023;BMP280;20673;48.980;8.138;2023-02-15T01:10:18;101629.72;;;2.02
34023;BMP280;20673;48.980;8.138;2023-02-15T01:12:44;101631.84;;;2.02
34023;BMP280;20673;48.980;8.138;2023-02-15T01:15:10;101625.46;;;2.01
34023;BMP280;20673;48.980;8.138;2023-02-15T01:17:36;101629.56;;;2.00
34023;BMP280;20673;48.980;8.138;2023-02-15T01:20:02;101625.90;;;1.96
34023;BMP280;20673;48.980;8.138;2023-02-15T01:22:28;101623.06;;;1.95
34023;BMP280;20673;48.980;8.138;2023-02-15T01:24:54;101618.96;;;1.95
34023;BMP280;20673;48.980;8.138;2023-02-15T01:27:20;101621.75;;;1.95
34023;BMP280;20673;48.980;8.138;2023-02-15T01:29:46;101620.20;;;1.93
34023;BMP280;20673;48.980;8.138;2023-02-15T01:32:13;101619.86;;;1.94
34023;BMP280;20673;48.980;8.138;2023-02-15T01:34:39;101623.29;;;1.96
34023;BMP280;20673;48.980;8.138;2023-02-15T01:37:04;101623.22;;;1.93
34023;BMP280;20673;48.980;8.138;2023-02-15T01:39:30;101619.07;;;1.91
34023;BMP280;20673;48.980;8.138;2023-02-15T01:41:56;101621.84;;;1.93
34023;BMP280;20673;48.980;8.138;2023-02-15T01:50:15;101610.43;;;1.93
34023;BMP280;20673;48.980;8.138;2023-02-15T01:52:46;122136.73;;;-134.55
34023;BMP280;20673;48.980;8.138;2023-02-15T01:55:11;122136.73;;;-134.55
34023;BMP280;20673;48.980;8.138;2023-02-15T01:57:38;122136.73;;;-134.55
34023;BMP280;20673;48.980;8.138;2023-02-15T02:00:06;122136.73;;;-134.55
34023;BMP280;20673;48.980;8.138;2023-02-15T02:02:32;122136.73;;;-134.55
34023;BMP280;20673;48.980;8.138;2023-02-15T02:05:01;122136.73;;;-134.55
34023;BMP280;20673;48.980;8.138;2023-02-15T02:07:39;122136.73;;;-134.55
34023;BMP280;20673;48.980;8.138;2023-02-15T02:10:10;122136.73;;;-134.55
34023;BMP280;20673;48.980;8.138;2023-02-15T02:12:36;122136.73;;;-134.55
34023;BMP280;20673;48.980;8.138;2023-02-15T02:15:05;122136.73;;;-134.55
34023;BMP280;20673;48.980;8.138;2023-02-15T02:17:54;122136.73;;;-134.55
34023;BMP280;20673;48.980;8.138;2023-02-15T02:20:49;122136.73;;;-134.55
34023;BMP280;20673;48.980;8.138;2023-02-15T02:23:18;122136.73;;;-134.55
34023;BMP280;20673;48.980;8.138;2023-02-15T02:34:22;122136.73;;;-134.55
34023;BMP280;20673;48.980;8.138;2023-02-15T02:39:56;122136.73;;;-134.55
34023;BMP280;20673;48.980;8.138;2023-02-15T02:45:08;122136.73;;;-134.55
34023;BMP280;20673;48.980;8.138;2023-02-15T02:47:46;122136.73;;;-134.55
34023;BMP280;20673;48.980;8.138;2023-02-15T02:50:16;122136.73;;;-134.55
34023;BMP280;20673;48.980;8.138;2023-02-15T02:52:47;122136.73;;;-134.55
34023;BMP280;20673;48.980;8.138;2023-02-15T02:55:39;122136.73;;;-134.55
34023;BMP280;20673;48.980;8.138;2023-02-15T03:01:03;122136.73;;;-134.55
34023;BMP280;20673;48.980;8.138;2023-02-15T03:03:40;122136.73;;;-134.55
34023;BMP280;20673;48.980;8.138;2023-02-15T03:06:10;122136.73;;;-134.55
34023;BMP280;20673;48.980;8.138;2023-02-15T03:08:39;122136.73;;;-134.55
34023;BMP280;20673;48.980;8.138;2023-02-15T03:11:06;122136.73;;;-134.55
34023;BMP280;20673;48.980;8.138;2023-02-15T03:13:32;122136.73;;;-134.55
34023;BMP280;20673;48.980;8.138;2023-02-15T03:16:00;122136.73;;;-134.55
34023;BMP280;20673;48.980;8.138;2023-02-15T03:18:49;122136.73;;;-134.55
34023;BMP280;20673;48.980;8.138;2023-02-15T03:21:16;122136.73;;;-134.55
34023;BMP280;20673;48.980;8.138;2023-02-15T03:23:44;122136.73;;;-134.55
34023;BMP280;20673;48.980;8.138;2023-02-15T03:26:10;122136.73;;;-134.55
34023;BMP280;20673;48.980;8.138;2023-02-15T03:28:40;122136.73;;;-134.55
34023;BMP280;20673;48.980;8.138;2023-02-15T03:31:07;122136.73;;;-134.55
34023;BMP280;20673;48.980;8.138;2023-02-15T03:33:36;122136.73;;;-134.55
34023;BMP280;20673;48.980;8.138;2023-02-15T03:36:09;122136.73;;;-134.55
34023;BMP280;20673;48.980;8.138;2023-02-15T03:38:44;122136.73;;;-134.55
34023;BMP280;20673;48.980;8.138;2023-02-15T03:41:08;122136.73;;;-134.55
34023;BMP280;20673;48.980;8.138;2023-02-15T03:43:51;122136.73;;;-134.55
34023;BMP280;20673;48.980;8.138;2023-02-15T03:46:28;122136.73;;;-134.55
34023;BMP280;20673;48.980;8.138;2023-02-15T03:49:06;122136.73;;;-134.55
34023;BMP280;20673;48.980;8.138;2023-02-15T03:51:35;122136.73;;;-134.55
34023;BMP280;20673;48.980;8.138;2023-02-15T03:54:09;122136.73;;;-134.55
34023;BMP280;20673;48.980;8.138;2023-02-15T03:56:39;122136.73;;;-134.55
34023;BMP280;20673;48.980;8.138;2023-02-15T03:59:06;122136.73;;;-134.55
34023;BMP280;20673;48.980;8.138;2023-02-15T04:04:35;122136.73;;;-134.55
34023;BMP280;20673;48.980;8.138;2023-02-15T04:07:02;122136.73;;;-134.55
34023;BMP280;20673;48.980;8.138;2023-02-15T04:09:29;122136.73;;;-134.55
34023;BMP280;20673;48.980;8.138;2023-02-15T04:12:13;122136.73;;;-134.55
34023;BMP280;20673;48.980;8.138;2023-02-15T04:14:39;122136.73;;;-134.55
34023;BMP280;20673;48.980;8.138;2023-02-15T04:17:23;122136.73;;;-134.55
34023;BMP280;20673;48.980;8.138;2023-02-15T04:19:49;122136.73;;;-134.55
34023;BMP280;20673;48.980;8.138;2023-02-15T04:22:33;122136.73;;;-134.55
34023;BMP280;20673;48.980;8.138;2023-02-15T04:25:17;122136.73;;;-134.55
34023;BMP280;20673;48.980;8.138;2023-02-15T04:27:53;122136.73;;;-134.55
34023;BMP280;20673;48.980;8.138;2023-02-15T04:30:17;122136.73;;;-134.55
34023;BMP280;20673;48.980;8.138;2023-02-15T04:32:44;122136.73;;;-134.55
34023;BMP280;20673;48.980;8.138;2023-02-15T04:35:11;122136.73;;;-134.55
34023;BMP280;20673;48.980;8.138;2023-02-15T04:37:37;122136.73;;;-134.55
34023;BMP280;20673;48.980;8.138;2023-02-15T04:40:05;122136.73;;;-134.55
34023;BMP280;20673;48.980;8.138;2023-02-15T04:42:31;122136.73;;;-134.55
34023;BMP280;20673;48.980;8.138;2023-02-15T04:44:57;122136.73;;;-134.55
34023;BMP280;20673;48.980;8.138;2023-02-15T04:47:24;122136.73;;;-134.55
34023;BMP280;20673;48.980;8.138;2023-02-15T04:49:49;122136.73;;;-134.55
34023;BMP280;20673;48.980;8.138;2023-02-15T04:52:15;122136.73;;;-134.55
34023;BMP280;20673;48.980;8.138;2023-02-15T04:54:43;122136.73;;;-134.55
34023;BMP280;20673;48.980;8.138;2023-02-15T04:57:10;122136.73;;;-134.55
34023;BMP280;20673;48.980;8.138;2023-02-15T04:59:35;122136.73;;;-134.55
34023;BMP280;20673;48.980;8.138;2023-02-15T05:02:02;122136.73;;;-134.55
34023;BMP280;20673;48.980;8.138;2023-02-15T05:04:28;122136.73;;;-134.55
34023;BMP280;20673;48.980;8.138;2023-02-15T05:06:54;122136.73;;;-134.55
34023;BMP280;20673;48.980;8.138;2023-02-15T05:09:19;122136.73;;;-134.55
34023;BMP280;20673;48.980;8.138;2023-02-15T05:11:45;122136.73;;;-134.55
34023;BMP280;20673;48.980;8.138;2023-02-15T05:14:11;122136.73;;;-134.55
34023;BMP280;20673;48.980;8.138;2023-02-15T05:16:38;122136.73;;;-134.55
34023;BMP280;20673;48.980;8.138;2023-02-15T05:19:04;122136.73;;;-134.55
34023;BMP280;20673;48.980;8.138;2023-02-15T05:21:30;122136.73;;;-134.55
34023;BMP280;20673;48.980;8.138;2023-02-15T05:23:56;122136.73;;;-134.55
34023;BMP280;20673;48.980;8.138;2023-02-15T05:26:24;122136.73;;;-134.55
34023;BMP280;20673;48.980;8.138;2023-02-15T05:29:08;122136.73;;;-134.55
34023;BMP280;20673;48.980;8.138;2023-02-15T05:31:35;122136.73;;;-134.55
34023;BMP280;20673;48.980;8.138;2023-02-15T05:34:01;122136.73;;;-134.55
34023;BMP280;20673;48.980;8.138;2023-02-15T05:36:27;122136.73;;;-134.55
34023;BMP280;20673;48.980;8.138;2023-02-15T05:38:54;122136.73;;;-134.55
34023;BMP280;20673;48.980;8.138;2023-02-15T05:41:20;122136.73;;;-134.55
34023;BMP280;20673;48.980;8.138;2023-02-15T05:43:46;122136.73;;;-134.55
34023;BMP280;20673;48.980;8.138;2023-02-15T05:46:12;122136.73;;;-134.55
34023;BMP280;20673;48.980;8.138;2023-02-15T05:48:39;122136.73;;;-134.55
34023;BMP280;20673;48.980;8.138;2023-02-15T05:51:07;122136.73;;;-134.55
34023;BMP280;20673;48.980;8.138;2023-02-15T05:53:35;122136.73;;;-134.55
34023;BMP280;20673;48.980;8.138;2023-02-15T05:56:02;122136.73;;;-134.55
34023;BMP280;20673;48.980;8.138;2023-02-15T05:58:31;122136.73;;;-134.55
34023;BMP280;20673;48.980;8.138;2023-02-15T06:00:57;122136.73;;;-134.55
34023;BMP280;20673;48.980;8.138;2023-02-15T06:03:24;122136.73;;;-134.55
34023;BMP280;20673;48.980;8.138;2023-02-15T06:05:52;122136.73;;;-134.55
34023;BMP280;20673;48.980;8.138;2023-02-15T06:08:18;122136.73;;;-134.55
34023;BMP280;20673;48.980;8.138;2023-02-15T06:10:47;122136.73;;;-134.55
34023;BMP280;20673;48.980;8.138;2023-02-15T06:13:13;122136.73;;;-134.55
34023;BMP280;20673;48.980;8.138;2023-02-15T06:15:38;122136.73;;;-134.55
34023;BMP280;20673;48.980;8.138;2023-02-15T06:18:04;122136.73;;;-134.55
34023;BMP280;20673;48.980;8.138;2023-02-15T06:20:30;122136.73;;;-134.55
34023;BMP280;20673;48.980;8.138;2023-02-15T06:22:56;122136.73;;;-134.55
34023;BMP280;20673;48.980;8.138;2023-02-15T06:25:22;122136.73;;;-134.55
34023;BMP280;20673;48.980;8.138;2023-02-15T06:27:50;122136.73;;;-134.55
34023;BMP280;20673;48.980;8.138;2023-02-15T06:30:16;122136.73;;;-134.55
34023;BMP280;20673;48.980;8.138;2023-02-15T06:32:42;122136.73;;;-134.55
34023;BMP280;20673;48.980;8.138;2023-02-15T06:35:08;122136.73;;;-134.55
34023;BMP280;20673;48.980;8.138;2023-02-15T06:37:34;122136.73;;;-134.55
34023;BMP280;20673;48.980;8.138;2023-02-15T06:40:00;122136.73;;;-134.55
34023;BMP280;20673;48.980;8.138;2023-02-15T06:42:26;122136.73;;;-134.55
34023;BMP280;20673;48.980;8.138;2023-02-15T06:44:52;122136.73;;;-134.55
34023;BMP280;20673;48.980;8.138;2023-02-15T06:47:18;122136.73;;;-134.55
34023;BMP280;20673;48.980;8.138;2023-02-15T06:49:44;122136.73;;;-134.55
34023;BMP280;20673;48.980;8.138;2023-02-15T06:52:10;122136.73;;;-134.55
34023;BMP280;20673;48.980;8.138;2023-02-15T06:54:35;122136.73;;;-134.55
34023;BMP280;20673;48.980;8.138;2023-02-15T06:57:02;122136.73;;;-134.55
34023;BMP280;20673;48.980;8.138;2023-02-15T06:59:28;122136.73;;;-134.55
34023;BMP280;20673;48.980;8.138;2023-02-15T07:01:54;122136.73;;;-134.55
34023;BMP280;20673;48.980;8.138;2023-02-15T07:04:20;122136.73;;;-134.55
34023;BMP280;20673;48.980;8.138;2023-02-15T07:06:45;122136.73;;;-134.55
34023;BMP280;20673;48.980;8.138;2023-02-15T07:09:11;122136.73;;;-134.55
34023;BMP280;20673;48.980;8.138;2023-02-15T07:11:38;122136.73;;;-134.55
34023;BMP280;20673;48.980;8.138;2023-02-15T07:14:22;122136.73;;;-134.55
34023;BMP280;20673;48.980;8.138;2023-02-15T07:16:48;122136.73;;;-134.55
34023;BMP280;20673;48.980;8.138;2023-02-15T07:19:14;122136.73;;;-134.55
34023;BMP280;20673;48.980;8.138;2023-02-15T07:21:40;122136.73;;;-134.55
34023;BMP280;20673;48.980;8.138;2023-02-15T07:24:06;122136.73;;;-134.55
34023;BMP280;20673;48.980;8.138;2023-02-15T07:26:33;122136.73;;;-134.55
34023;BMP280;20673;48.980;8.138;2023-02-15T07:28:59;122136.73;;;-134.55
34023;BMP280;20673;48.980;8.138;2023-02-15T07:31:25;122136.73;;;-134.55
34023;BMP280;20673;48.980;8.138;2023-02-15T07:33:51;122136.73;;;-134.55
34023;BMP280;20673;48.980;8.138;2023-02-15T07:36:16;122136.73;;;-134.55
34023;BMP280;20673;48.980;8.138;2023-02-15T07:38:42;122136.73;;;-134.55
34023;BMP280;20673;48.980;8.138;2023-02-15T07:41:11;122136.73;;;-134.55
34023;BMP280;20673;48.980;8.138;2023-02-15T07:43:39;122136.73;;;-134.55
34023;BMP280;20673;48.980;8.138;2023-02-15T07:46:08;122136.73;;;-134.55
34023;BMP280;20673;48.980;8.138;2023-02-15T07:48:36;122136.73;;;-134.55
34023;BMP280;20673;48.980;8.138;2023-02-15T07:51:03;122136.73;;;-134.55
34023;BMP280;20673;48.980;8.138;2023-02-15T07:53:30;122136.73;;;-134.55
34023;BMP280;20673;48.980;8.138;2023-02-15T07:56:00;122136.73;;;-134.55
34023;BMP280;20673;48.980;8.138;2023-02-15T07:58:26;122136.73;;;-134.55
34023;BMP280;20673;48.980;8.138;2023-02-15T08:00:55;122136.73;;;-134.55
34023;BMP280;20673;48.980;8.138;2023-02-15T08:03:26;122136.73;;;-134.55
34023;BMP280;20673;48.980;8.138;2023-02-15T08:05:58;122136.73;;;-134.55
34023;BMP280;20673;48.980;8.138;2023-02-15T08:08:25;122136.73;;;-134.55
34023;BMP280;20673;48.980;8.138;2023-02-15T08:11:04;122136.73;;;-134.55
34023;BMP280;20673;48.980;8.138;2023-02-15T08:13:47;122136.73;;;-134.55
34023;BMP280;20673;48.980;8.138;2023-02-15T08:16:36;122136.73;;;-134.55
34023;BMP280;20673;48.980;8.138;2023-02-15T08:21:54;122136.73;;;-134.55
34023;BMP280;20673;48.980;8.138;2023-02-15T08:24:20;122136.73;;;-134.55
34023;BMP280;20673;48.980;8.138;2023-02-15T08:26:47;122136.73;;;-134.55
34023;BMP280;20673;48.980;8.138;2023-02-15T08:29:14;122136.73;;;-134.55
34023;BMP280;20673;48.980;8.138;2023-02-15T08:31:41;122136.73;;;-134.55
34023;BMP280;20673;48.980;8.138;2023-02-15T08:34:08;122136.73;;;-134.55
34023;BMP280;20673;48.980;8.138;2023-02-15T08:36:35;122136.73;;;-134.55
34023;BMP280;20673;48.980;8.138;2023-02-15T08:39:03;122136.73;;;-134.55
34023;BMP280;20673;48.980;8.138;2023-02-15T08:41:33;122136.73;;;-134.55
34023;BMP280;20673;48.980;8.138;2023-02-15T08:44:02;122136.73;;;-134.55
34023;BMP280;20673;48.980;8.138;2023-02-15T08:46:31;122136.73;;;-134.55
34023;BMP280;20673;48.980;8.138;2023-02-15T08:48:58;122136.73;;;-134.55
34023;BMP280;20673;48.980;8.138;2023-02-15T08:51:32;122136.73;;;-134.55
34023;BMP280;20673;48.980;8.138;2023-02-15T08:54:00;122136.73;;;-134.55
34023;BMP280;20673;48.980;8.138;2023-02-15T08:56:30;122136.73;;;-134.55
34023;BMP280;20673;48.980;8.138;2023-02-15T08:58:57;122136.73;;;-134.55
34023;BMP280;20673;48.980;8.138;2023-02-15T09:01:28;122136.73;;;-134.55
34023;BMP280;20673;48.980;8.138;2023-02-15T09:03:57;122136.73;;;-134.55
34023;BMP280;20673;48.980;8.138;2023-02-15T09:06:24;122136.73;;;-134.55
34023;BMP280;20673;48.980;8.138;2023-02-15T09:08:50;122136.73;;;-134.55
34023;BMP280;20673;48.980;8.138;2023-02-15T09:11:24;122136.73;;;-134.55
34023;BMP280;20673;48.980;8.138;2023-02-15T09:13:56;122136.73;;;-134.55
34023;BMP280;20673;48.980;8.138;2023-02-15T09:16:24;122136.73;;;-134.55
34023;BMP280;20673;48.980;8.138;2023-02-15T09:18:50;122136.73;;;-134.55
34023;BMP280;20673;48.980;8.138;2023-02-15T09:21:20;122136.73;;;-134.55
34023;BMP280;20673;48.980;8.138;2023-02-15T09:23:48;122136.73;;;-134.55
34023;BMP280;20673;48.980;8.138;2023-02-15T09:26:19;122136.73;;;-134.55
34023;BMP280;20673;48.980;8.138;2023-02-15T09:28:46;122136.73;;;-134.55
34023;BMP280;20673;48.980;8.138;2023-02-15T09:31:17;122136.73;;;-134.55
34023;BMP280;20673;48.980;8.138;2023-02-15T09:33:45;122136.73;;;-134.55
34023;BMP280;20673;48.980;8.138;2023-02-15T09:38:50;122136.73;;;-134.55
34023;BMP280;20673;48.980;8.138;2023-02-15T09:46:44;122136.73;;;-134.55
34023;BMP280;20673;48.980;8.138;2023-02-15T09:49:21;122136.73;;;-134.55
34023;BMP280;20673;48.980;8.138;2023-02-15T09:52:06;122136.73;;;-134.55
34023;BMP280;20673;48.980;8.138;2023-02-15T09:54:47;122136.73;;;-134.55
34023;BMP280;20673;48.980;8.138;2023-02-15T10:00:01;122136.73;;;-134.55
34023;BMP280;20673;48.980;8.138;2023-02-15T10:13:31;122136.73;;;-134.55
34023;BMP280;20673;48.980;8.138;2023-02-15T10:16:24;122136.73;;;-134.55
34023;BMP280;20673;48.980;8.138;2023-02-15T10:21:58;122136.73;;;-134.55
34023;BMP280;20673;48.980;8.138;2023-02-15T10:24:12;122136.73;;;-134.55
34023;BMP280;20673;48.980;8.138;2023-02-15T10:26:45;122136.73;;;-134.55
34023;BMP280;20673;48.980;8.138;2023-02-15T10:31:51;122136.73;;;-134.55
34023;BMP280;20673;48.980;8.138;2023-02-15T10:34:21;122136.73;;;-134.55
34023;BMP280;20673;48.980;8.138;2023-02-15T10:53:18;122136.73;;;-134.55
34023;BMP280;20673;48.980;8.138;2023-02-15T10:55:56;122136.73;;;-134.55
34023;BMP280;20673;48.980;8.138;2023-02-15T11:01:17;122136.73;;;-134.55
34023;BMP280;20673;48.980;8.138;2023-02-15T11:06:33;122136.73;;;-134.55
34023;BMP280;20673;48.980;8.138;2023-02-15T11:09:09;122136.73;;;-134.55
34023;BMP280;20673;48.980;8.138;2023-02-15T11:11:34;122136.73;;;-134.55
34023;BMP280;20673;48.980;8.138;2023-02-15T11:14:05;122136.73;;;-134.55
34023;BMP280;20673;48.980;8.138;2023-02-15T11:16:33;122136.73;;;-134.55
34023;BMP280;20673;48.980;8.138;2023-02-15T11:19:06;122136.73;;;-134.55
34023;BMP280;20673;48.980;8.138;2023-02-15T11:21:37;122136.73;;;-134.55
34023;BMP280;20673;48.980;8.138;2023-02-15T11:24:16;122136.73;;;-134.55
34023;BMP280;20673;48.980;8.138;2023-02-15T11:32:23;122136.73;;;-134.55
34023;BMP280;20673;48.980;8.138;2023-02-15T11:37:32;122136.73;;;-134.55
34023;BMP280;20673;48.980;8.138;2023-02-15T11:39:58;122136.73;;;-134.55
34023;BMP280;20673;48.980;8.138;2023-02-15T11:42:27;122136.73;;;-134.55
34023;BMP280;20673;48.980;8.138;2023-02-15T11:45:39;122136.73;;;-134.55
34023;BMP280;20673;48.980;8.138;2023-02-15T11:47:28;122136.73;;;-134.55
34023;BMP280;20673;48.980;8.138;2023-02-15T11:49:54;122136.73;;;-134.55
34023;BMP280;20673;48.980;8.138;2023-02-15T11:52:20;122136.73;;;-134.55
34023;BMP280;20673;48.980;8.138;2023-02-15T11:54:49;122136.73;;;-134.55
34023;BMP280;20673;48.980;8.138;2023-02-15T11:57:33;122136.73;;;-134.55
34023;BMP280;20673;48.980;8.138;2023-02-15T12:00:23;122136.73;;;-134.55
34023;BMP280;20673;48.980;8.138;2023-02-15T12:02:45;122136.73;;;-134.55
34023;BMP280;20673;48.980;8.138;2023-02-15T12:05:17;122136.73;;;-134.55
34023;BMP280;20673;48.980;8.138;2023-02-15T12:07:53;122136.73;;;-134.55
34023;BMP280;20673;48.980;8.138;2023-02-15T12:10:25;122136.73;;;-134.55
34023;BMP280;20673;48.980;8.138;2023-02-15T12:15:44;122136.73;;;-134.55
34023;BMP280;20673;48.980;8.138;2023-02-15T12:18:27;122136.73;;;-134.55
34023;BMP280;20673;48.980;8.138;2023-02-15T12:20:49;122136.73;;;-134.55
34023;BMP280;20673;48.980;8.138;2023-02-15T12:23:17;122136.73;;;-134.55
34023;BMP280;20673;48.980;8.138;2023-02-15T12:25:53;122136.73;;;-134.55
34023;BMP280;20673;48.980;8.138;2023-02-15T12:31:03;122136.73;;;-134.55
34023;BMP280;20673;48.980;8.138;2023-02-15T12:33:35;122136.73;;;-134.55
34023;BMP280;20673;48.980;8.138;2023-02-15T12:36:09;122136.73;;;-134.55
34023;BMP280;20673;48.980;8.138;2023-02-15T12:38:31;122136.73;;;-134.55
34023;BMP280;20673;48.980;8.138;2023-02-15T12:41:01;122136.73;;;-134.55
34023;BMP280;20673;48.980;8.138;2023-02-15T12:43:34;122136.73;;;-134.55
34023;BMP280;20673;48.980;8.138;2023-02-15T12:49:06;122136.73;;;-134.55
34023;BMP280;20673;48.980;8.138;2023-02-15T12:51:45;122136.73;;;-134.55
34023;BMP280;20673;48.980;8.138;2023-02-15T12:54:32;122136.73;;;-134.55
34023;BMP280;20673;48.980;8.138;2023-02-15T12:59:54;122136.73;;;-134.55
34023;BMP280;20673;48.980;8.138;2023-02-15T13:05:16;122136.73;;;-134.55
34023;BMP280;20673;48.980;8.138;2023-02-15T13:07:49;122136.73;;;-134.55
34023;BMP280;20673;48.980;8.138;2023-02-15T13:10:25;122136.73;;;-134.55
34023;BMP280;20673;48.980;8.138;2023-02-15T13:12:50;122136.73;;;-134.55
34023;BMP280;20673;48.980;8.138;2023-02-15T13:15:25;122136.73;;;-134.55
34023;BMP280;20673;48.980;8.138;2023-02-15T13:17:51;122136.73;;;-134.55
34023;BMP280;20673;48.980;8.138;2023-02-15T13:20:20;122136.73;;;-134.55
34023;BMP280;20673;48.980;8.138;2023-02-15T13:22:50;122136.73;;;-134.55
34023;BMP280;20673;48.980;8.138;2023-02-15T13:25:23;122136.73;;;-134.55
34023;BMP280;20673;48.980;8.138;2023-02-15T13:27:55;122136.73;;;-134.55
34023;BMP280;20673;48.980;8.138;2023-02-15T13:30:28;122136.73;;;-134.55
34023;BMP280;20673;48.980;8.138;2023-02-15T13:32:59;122136.73;;;-134.55
34023;BMP280;20673;48.980;8.138;2023-02-15T13:35:29;122136.73;;;-134.55
34023;BMP280;20673;48.980;8.138;2023-02-15T13:38:00;122136.73;;;-134.55
34023;BMP280;20673;48.980;8.138;2023-02-15T13:40:33;122136.73;;;-134.55
34023;BMP280;20673;48.980;8.138;2023-02-15T13:48:24;122136.73;;;-134.55
34023;BMP280;20673;48.980;8.138;2023-02-15T13:53:42;122136.73;;;-134.55
34023;BMP280;20673;48.980;8.138;2023-02-15T14:01:46;122136.73;;;-134.55
34023;BMP280;20673;48.980;8.138;2023-02-15T14:15:32;122136.73;;;-134.55
34023;BMP280;20673;48.980;8.138;2023-02-15T14:20:55;122136.73;;;-134.55
34023;BMP280;20673;48.980;8.138;2023-02-15T14:23:48;122136.73;;;-134.55
34023;BMP280;20673;48.980;8.138;2023-02-15T14:26:43;122136.73;;;-134.55
34023;BMP280;20673;48.980;8.138;2023-02-15T14:29:22;122136.73;;;-134.55
34023;BMP280;20673;48.980;8.138;2023-02-15T14:31:49;122136.73;;;-134.55
34023;BMP280;20673;48.980;8.138;2023-02-15T14:34:23;122136.73;;;-134.55
34023;BMP280;20673;48.980;8.138;2023-02-15T14:36:51;122136.73;;;-134.55
34023;BMP280;20673;48.980;8.138;2023-02-15T14:42:43;122136.73;;;-134.55
34023;BMP280;20673;48.980;8.138;2023-02-15T14:47:44;122136.73;;;-134.55
34023;BMP280;20673;48.980;8.138;2023-02-15T14:53:24;122136.73;;;-134.55
34023;BMP280;20673;48.980;8.138;2023-02-15T15:01:30;122136.73;;;-134.55
34023;BMP280;20673;48.980;8.138;2023-02-15T15:03:59;122136.73;;;-134.55
34023;BMP280;20673;48.980;8.138;2023-02-15T15:06:32;122136.73;;;-134.55
34023;BMP280;20673;48.980;8.138;2023-02-15T15:11:45;122136.73;;;-134.55
34023;BMP280;20673;48.980;8.138;2023-02-15T15:17:05;122136.73;;;-134.55
34023;BMP280;20673;48.980;8.138;2023-02-15T15:22:24;122136.73;;;-134.55
34023;BMP280;20673;48.980;8.138;2023-02-15T15:25:00;122136.73;;;-134.55
34023;BMP280;20673;48.980;8.138;2023-02-15T15:27:50;122136.73;;;-134.55
34023;BMP280;20673;48.980;8.138;2023-02-15T15:46:56;122136.73;;;-134.55
34023;BMP280;20673;48.980;8.138;2023-02-15T15:49:20;122136.73;;;-134.55
34023;BMP280;20673;48.980;8.138;2023-02-15T15:51:47;122136.73;;;-134.55
34023;BMP280;20673;48.980;8.138;2023-02-15T15:54:20;122136.73;;;-134.55
34023;BMP280;20673;48.980;8.138;2023-02-15T15:56:52;122136.73;;;-134.55
34023;BMP280;20673;48.980;8.138;2023-02-15T15:59:22;122136.73;;;-134.55
34023;BMP280;20673;48.980;8.138;2023-02-15T16:01:49;122136.73;;;-134.55
34023;BMP280;20673;48.980;8.138;2023-02-15T16:04:30;122136.73;;;-134.55
34023;BMP280;20673;48.980;8.138;2023-02-15T16:06:57;122136.73;;;-134.55
34023;BMP280;20673;48.980;8.138;2023-02-15T16:09:26;122136.73;;;-134.55
34023;BMP280;20673;48.980;8.138;2023-02-15T16:11:55;122136.73;;;-134.55
34023;BMP280;20673;48.980;8.138;2023-02-15T16:14:38;122136.73;;;-134.55
34023;BMP280;20673;48.980;8.138;2023-02-15T16:17:07;122136.73;;;-134.55
34023;BMP280;20673;48.980;8.138;2023-02-15T16:19:36;122136.73;;;-134.55
34023;BMP280;20673;48.980;8.138;2023-02-15T16:22:04;122136.73;;;-134.55
34023;BMP280;20673;48.980;8.138;2023-02-15T16:33:13;122136.73;;;-134.55
34023;BMP280;20673;48.980;8.138;2023-02-15T16:35:54;122136.73;;;-134.55
34023;BMP280;20673;48.980;8.138;2023-02-15T16:41:20;122136.73;;;-134.55
34023;BMP280;20673;48.980;8.138;2023-02-15T16:43:43;122136.73;;;-134.55
34023;BMP280;20673;48.980;8.138;2023-02-15T16:46:13;122136.73;;;-134.55
34023;BMP280;20673;48.980;8.138;2023-02-15T16:48:42;122136.73;;;-134.55
34023;BMP280;20673;48.980;8.138;2023-02-15T16:51:09;122136.73;;;-134.55
34023;BMP280;20673;48.980;8.138;2023-02-15T16:53:36;122136.73;;;-134.55